Cedar Ridge, California
Current Conditions -  °F | °C
As of 5:00 PM on Saturday 25 Oct 2014 (Local Time) from KGOO Reporting Station
Overcast Overcast  
Wind Chill: 52°   Ceiling: 2000
Heat Index: 52°   Visibility: 9mi
Dew Point: 50°   Wind: 10mph
Humidity: 94%   Direction: 150°SSE
Pressure: 30.1"   Gusts: 17mph
Location:  39.19°N, 121.02°W
Report Text: KGOO 260000Z AUTO 15009G15KT 9SM FEW006 BKN020 OVC030 11/10 A3010 RMK AO1
Loading
Personal Weather Stations






























Interactive Weather Map
Tropical Storm Tracking
New forecast layout! Learn more

10-Day Weather Forecast

Advertisements
Track Severe Weather on mobile